sensor_id;sensor_type;location;lat;lon;timestamp;pressure;altitude;pressure_sealevel;temperature;humidity
70971;BME280;58632;51.718;19.446;2022-11-20T00:02:04;99331.13;;;-3.44;67.33
70971;BME280;58632;51.718;19.446;2022-11-20T00:04:30;99331.98;;;-3.43;67.29
70971;BME280;58632;51.718;19.446;2022-11-20T00:06:55;99328.45;;;-3.43;67.42
70971;BME280;58632;51.718;19.446;2022-11-20T00:09:21;99324.91;;;-3.43;67.05
70971;BME280;58632;51.718;19.446;2022-11-20T00:11:47;99325.02;;;-3.40;67.21
70971;BME280;58632;51.718;19.446;2022-11-20T00:14:12;99324.83;;;-3.30;67.26
70971;BME280;58632;51.718;19.446;2022-11-20T00:16:38;99321.02;;;-3.23;67.13
70971;BME280;58632;51.718;19.446;2022-11-20T00:19:03;99322.44;;;-3.16;66.93
70971;BME280;58632;51.718;19.446;2022-11-20T00:21:29;99322.20;;;-3.13;66.82
70971;BME280;58632;51.718;19.446;2022-11-20T00:23:55;99312.25;;;-3.13;66.92
70971;BME280;58632;51.718;19.446;2022-11-20T00:26:22;99310.64;;;-3.13;67.04
70971;BME280;58632;51.718;19.446;2022-11-20T00:28:52;99313.02;;;-3.15;66.70
70971;BME280;58632;51.718;19.446;2022-11-20T00:31:17;99311.94;;;-3.15;66.94
70971;BME280;58632;51.718;19.446;2022-11-20T00:33:43;99313.23;;;-3.15;66.91
70971;BME280;58632;51.718;19.446;2022-11-20T00:36:10;99313.58;;;-3.16;66.61
70971;BME280;58632;51.718;19.446;2022-11-20T00:38:36;99313.91;;;-3.15;66.82
70971;BME280;58632;51.718;19.446;2022-11-20T00:41:02;99306.20;;;-3.16;66.89
70971;BME280;58632;51.718;19.446;2022-11-20T00:43:28;99301.21;;;-3.16;66.84
70971;BME280;58632;51.718;19.446;2022-11-20T00:46:00;99303.95;;;-3.09;66.88
70971;BME280;58632;51.718;19.446;2022-11-20T00:48:26;99311.49;;;-3.00;66.72
70971;BME280;58632;51.718;19.446;2022-11-20T00:50:52;99310.92;;;-2.94;66.74
70971;BME280;58632;51.718;19.446;2022-11-20T00:53:17;99314.41;;;-2.93;66.85
70971;BME280;58632;51.718;19.446;2022-11-20T00:55:44;99313.90;;;-2.92;66.69
70971;BME280;58632;51.718;19.446;2022-11-20T00:58:17;99309.01;;;-2.93;66.53
70971;BME280;58632;51.718;19.446;2022-11-20T01:00:42;99311.73;;;-2.94;66.56
70971;BME280;58632;51.718;19.446;2022-11-20T01:03:08;99309.23;;;-2.96;66.54
70971;BME280;58632;51.718;19.446;2022-11-20T01:05:34;99310.65;;;-2.99;66.45
70971;BME280;58632;51.718;19.446;2022-11-20T01:08:00;99303.01;;;-3.05;66.57
70971;BME280;58632;51.718;19.446;2022-11-20T01:10:26;99300.14;;;-3.09;66.43
70971;BME280;58632;51.718;19.446;2022-11-20T01:12:51;99303.51;;;-3.13;66.21
70971;BME280;58632;51.718;19.446;2022-11-20T01:15:37;99302.27;;;-3.17;66.69
70971;BME280;58632;51.718;19.446;2022-11-20T01:18:02;99303.42;;;-3.12;66.29
70971;BME280;58632;51.718;19.446;2022-11-20T01:20:28;99305.14;;;-3.09;66.32
70971;BME280;58632;51.718;19.446;2022-11-20T01:22:53;99307.89;;;-3.10;66.33
70971;BME280;58632;51.718;19.446;2022-11-20T01:25:19;99303.14;;;-3.09;66.67
70971;BME280;58632;51.718;19.446;2022-11-20T01:27:44;99301.90;;;-3.10;66.47
70971;BME280;58632;51.718;19.446;2022-11-20T01:30:10;99305.29;;;-3.12;66.53
70971;BME280;58632;51.718;19.446;2022-11-20T01:32:36;99301.51;;;-3.14;66.73
70971;BME280;58632;51.718;19.446;2022-11-20T01:35:02;99298.27;;;-3.15;66.65
70971;BME280;58632;51.718;19.446;2022-11-20T01:37:27;99293.52;;;-3.16;66.51
70971;BME280;58632;51.718;19.446;2022-11-20T01:39:53;99289.38;;;-3.19;66.96
70971;BME280;58632;51.718;19.446;2022-11-20T01:42:19;99293.60;;;-3.21;66.87
70971;BME280;58632;51.718;19.446;2022-11-20T01:45:42;99294.16;;;-3.22;66.84
70971;BME280;58632;51.718;19.446;2022-11-20T01:47:48;99300.39;;;-3.17;66.91
70971;BME280;58632;51.718;19.446;2022-11-20T01:50:19;99303.36;;;-3.16;66.81
70971;BME280;58632;51.718;19.446;2022-11-20T01:52:49;99306.05;;;-3.18;67.00
70971;BME280;58632;51.718;19.446;2022-11-20T01:55:22;99306.35;;;-3.20;67.16
70971;BME280;58632;51.718;19.446;2022-11-20T01:57:51;99306.38;;;-3.25;67.05
70971;BME280;58632;51.718;19.446;2022-11-20T02:00:17;99303.55;;;-3.31;67.12
70971;BME280;58632;51.718;19.446;2022-11-20T02:02:45;99298.61;;;-3.34;67.40
70971;BME280;58632;51.718;19.446;2022-11-20T02:05:32;99293.80;;;-3.38;67.46
70971;BME280;58632;51.718;19.446;2022-11-20T02:07:59;99296.02;;;-3.38;67.93
70971;BME280;58632;51.718;19.446;2022-11-20T02:10:24;99295.55;;;-3.39;67.83
70971;BME280;58632;51.718;19.446;2022-11-20T02:12:51;99295.18;;;-3.34;67.51
70971;BME280;58632;51.718;19.446;2022-11-20T02:15:35;99295.65;;;-3.35;67.62
70971;BME280;58632;51.718;19.446;2022-11-20T02:18:01;99294.14;;;-3.36;67.81
70971;BME280;58632;51.718;19.446;2022-11-20T02:20:27;99294.05;;;-3.38;67.91
70971;BME280;58632;51.718;19.446;2022-11-20T02:22:57;99290.31;;;-3.41;68.26
70971;BME280;58632;51.718;19.446;2022-11-20T02:25:24;99294.93;;;-3.44;68.32
70971;BME280;58632;51.718;19.446;2022-11-20T02:27:50;99294.56;;;-3.46;68.28
70971;BME280;58632;51.718;19.446;2022-11-20T02:30:16;99294.19;;;-3.43;68.37
70971;BME280;58632;51.718;19.446;2022-11-20T02:32:42;99290.06;;;-3.43;68.40
70971;BME280;58632;51.718;19.446;2022-11-20T02:37:34;99280.88;;;-3.42;68.70
70971;BME280;58632;51.718;19.446;2022-11-20T02:40:01;99279.11;;;-3.42;68.80
70971;BME280;58632;51.718;19.446;2022-11-20T02:42:27;99276.45;;;-3.44;68.81
70971;BME280;58632;51.718;19.446;2022-11-20T02:44:52;99276.35;;;-3.44;69.10
70971;BME280;58632;51.718;19.446;2022-11-20T02:47:18;99271.54;;;-3.39;69.10
70971;BME280;58632;51.718;19.446;2022-11-20T02:49:43;99269.59;;;-3.31;68.87
70971;BME280;58632;51.718;19.446;2022-11-20T02:52:09;99270.59;;;-3.26;69.00
70971;BME280;58632;51.718;19.446;2022-11-20T02:54:34;99273.42;;;-3.23;68.67
70971;BME280;58632;51.718;19.446;2022-11-20T02:57:00;99270.86;;;-3.18;68.89
70971;BME280;58632;51.718;19.446;2022-11-20T02:59:25;99272.71;;;-3.16;68.95
70971;BME280;58632;51.718;19.446;2022-11-20T03:01:51;99272.64;;;-3.14;68.94
70971;BME280;58632;51.718;19.446;2022-11-20T03:04:16;99269.73;;;-3.14;68.70
70971;BME280;58632;51.718;19.446;2022-11-20T03:06:42;99270.41;;;-3.16;68.98
70971;BME280;58632;51.718;19.446;2022-11-20T03:09:08;99276.81;;;-3.17;68.98
70971;BME280;58632;51.718;19.446;2022-11-20T03:11:34;99271.02;;;-3.18;68.88
70971;BME280;58632;51.718;19.446;2022-11-20T03:14:03;99267.30;;;-3.21;68.97
70971;BME280;58632;51.718;19.446;2022-11-20T03:16:30;99266.38;;;-3.24;68.90
70971;BME280;58632;51.718;19.446;2022-11-20T03:18:55;99266.73;;;-3.22;68.91
70971;BME280;58632;51.718;19.446;2022-11-20T03:21:21;99263.17;;;-3.17;68.85
70971;BME280;58632;51.718;19.446;2022-11-20T03:23:47;99264.70;;;-3.15;68.65
70971;BME280;58632;51.718;19.446;2022-11-20T03:26:14;99263.71;;;-3.19;68.55
70971;BME280;58632;51.718;19.446;2022-11-20T03:28:41;99264.27;;;-3.25;68.60
70971;BME280;58632;51.718;19.446;2022-11-20T03:31:10;99265.06;;;-3.30;68.56
70971;BME280;58632;51.718;19.446;2022-11-20T03:33:36;99263.21;;;-3.41;68.42
70971;BME280;58632;51.718;19.446;2022-11-20T03:36:02;99267.98;;;-3.51;68.49
70971;BME280;58632;51.718;19.446;2022-11-20T03:38:31;99275.20;;;-3.60;68.61
70971;BME280;58632;51.718;19.446;2022-11-20T03:41:17;99275.77;;;-3.68;68.89
70971;BME280;58632;51.718;19.446;2022-11-20T03:43:46;99274.04;;;-3.81;68.73
70971;BME280;58632;51.718;19.446;2022-11-20T03:46:12;99269.35;;;-3.95;68.71
70971;BME280;58632;51.718;19.446;2022-11-20T03:48:38;99271.87;;;-4.09;68.78
70971;BME280;58632;51.718;19.446;2022-11-20T03:51:16;99275.27;;;-4.27;69.16
70971;BME280;58632;51.718;19.446;2022-11-20T03:53:43;99277.84;;;-4.43;69.07
70971;BME280;58632;51.718;19.446;2022-11-20T03:56:09;99277.97;;;-4.55;70.08
70971;BME280;58632;51.718;19.446;2022-11-20T03:58:36;99276.27;;;-4.65;70.37
70971;BME280;58632;51.718;19.446;2022-11-20T04:01:05;99277.02;;;-4.77;70.04
70971;BME280;58632;51.718;19.446;2022-11-20T04:03:31;99274.91;;;-4.81;70.50
70971;BME280;58632;51.718;19.446;2022-11-20T04:06:01;99270.48;;;-4.80;70.66
70971;BME280;58632;51.718;19.446;2022-11-20T04:08:27;99269.76;;;-4.82;70.29
70971;BME280;58632;51.718;19.446;2022-11-20T04:10:53;99267.75;;;-4.87;70.79
70971;BME280;58632;51.718;19.446;2022-11-20T04:13:19;99272.34;;;-4.91;70.76
70971;BME280;58632;51.718;19.446;2022-11-20T04:15:44;99269.36;;;-4.99;71.05
70971;BME280;58632;51.718;19.446;2022-11-20T04:18:10;99271.66;;;-5.06;70.79
70971;BME280;58632;51.718;19.446;2022-11-20T04:20:35;99270.48;;;-5.14;71.21
70971;BME280;58632;51.718;19.446;2022-11-20T04:23:01;99270.46;;;-5.20;71.74
70971;BME280;58632;51.718;19.446;2022-11-20T04:25:26;99267.88;;;-5.25;71.58
70971;BME280;58632;51.718;19.446;2022-11-20T04:27:52;99262.67;;;-5.28;71.44
70971;BME280;58632;51.718;19.446;2022-11-20T04:30:17;99262.06;;;-5.31;71.92
70971;BME280;58632;51.718;19.446;2022-11-20T04:32:43;99263.02;;;-5.36;71.45
70971;BME280;58632;51.718;19.446;2022-11-20T04:35:09;99261.48;;;-5.42;71.60
70971;BME280;58632;51.718;19.446;2022-11-20T04:37:34;99260.95;;;-5.48;72.02
70971;BME280;58632;51.718;19.446;2022-11-20T04:39:59;99261.34;;;-5.55;71.86
70971;BME280;58632;51.718;19.446;2022-11-20T04:42:25;99257.41;;;-5.58;71.97
70971;BME280;58632;51.718;19.446;2022-11-20T04:44:53;99262.16;;;-5.57;71.89
70971;BME280;58632;51.718;19.446;2022-11-20T04:47:19;99259.71;;;-5.56;72.04
70971;BME280;58632;51.718;19.446;2022-11-20T04:49:44;99256.23;;;-5.54;72.40
70971;BME280;58632;51.718;19.446;2022-11-20T04:52:10;99253.60;;;-5.50;72.54
70971;BME280;58632;51.718;19.446;2022-11-20T04:54:35;99253.21;;;-5.55;72.53
70971;BME280;58632;51.718;19.446;2022-11-20T04:57:01;99256.88;;;-5.61;73.19
70971;BME280;58632;51.718;19.446;2022-11-20T04:59:26;99253.45;;;-5.68;73.25
70971;BME280;58632;51.718;19.446;2022-11-20T05:01:52;99250.49;;;-5.73;73.57
70971;BME280;58632;51.718;19.446;2022-11-20T05:04:18;99255.52;;;-5.79;74.33
70971;BME280;58632;51.718;19.446;2022-11-20T05:06:43;99251.64;;;-5.89;75.55
70971;BME280;58632;51.718;19.446;2022-11-20T05:09:10;99255.49;;;-5.98;75.81
70971;BME280;58632;51.718;19.446;2022-11-20T05:11:36;99261.05;;;-6.03;76.33
70971;BME280;58632;51.718;19.446;2022-11-20T05:14:02;99258.33;;;-6.01;76.40
70971;BME280;58632;51.718;19.446;2022-11-20T05:16:27;99260.16;;;-6.01;76.19
70971;BME280;58632;51.718;19.446;2022-11-20T05:18:53;99258.02;;;-6.05;76.37
70971;BME280;58632;51.718;19.446;2022-11-20T05:21:19;99256.14;;;-6.09;75.96
70971;BME280;58632;51.718;19.446;2022-11-20T05:23:45;99256.33;;;-6.11;76.44
70971;BME280;58632;51.718;19.446;2022-11-20T05:26:15;99257.38;;;-6.13;76.64
70971;BME280;58632;51.718;19.446;2022-11-20T05:28:41;99254.74;;;-6.16;76.34
70971;BME280;58632;51.718;19.446;2022-11-20T05:31:09;99255.71;;;-6.18;76.73
70971;BME280;58632;51.718;19.446;2022-11-20T05:33:35;99262.38;;;-6.18;76.82
70971;BME280;58632;51.718;19.446;2022-11-20T05:36:01;99263.01;;;-6.16;76.79
70971;BME280;58632;51.718;19.446;2022-11-20T05:38:27;99259.13;;;-6.15;77.25
70971;BME280;58632;51.718;19.446;2022-11-20T05:40:53;99251.79;;;-6.15;77.29
70971;BME280;58632;51.718;19.446;2022-11-20T05:43:18;99250.92;;;-6.15;77.22
70971;BME280;58632;51.718;19.446;2022-11-20T05:45:51;99256.83;;;-6.14;77.23
70971;BME280;58632;51.718;19.446;2022-11-20T05:48:17;99256.61;;;-6.10;77.08
70971;BME280;58632;51.718;19.446;2022-11-20T05:50:42;99258.23;;;-6.09;76.91
70971;BME280;58632;51.718;19.446;2022-11-20T05:53:07;99258.30;;;-6.08;76.96
70971;BME280;58632;51.718;19.446;2022-11-20T05:55:33;99260.91;;;-6.10;76.64
70971;BME280;58632;51.718;19.446;2022-11-20T05:57:59;99258.25;;;-6.14;77.29
70971;BME280;58632;51.718;19.446;2022-11-20T06:00:24;99252.60;;;-6.18;76.88
70971;BME280;58632;51.718;19.446;2022-11-20T06:02:50;99254.23;;;-6.23;76.88
70971;BME280;58632;51.718;19.446;2022-11-20T06:05:15;99254.85;;;-6.30;77.04
70971;BME280;58632;51.718;19.446;2022-11-20T06:07:41;99250.71;;;-6.33;77.32
70971;BME280;58632;51.718;19.446;2022-11-20T06:10:07;99246.56;;;-6.39;77.23
70971;BME280;58632;51.718;19.446;2022-11-20T06:12:32;99247.76;;;-6.43;77.05
70971;BME280;58632;51.718;19.446;2022-11-20T06:14:58;99244.27;;;-6.41;77.56
70971;BME280;58632;51.718;19.446;2022-11-20T06:17:24;99242.57;;;-6.38;77.86
70971;BME280;58632;51.718;19.446;2022-11-20T06:19:49;99244.02;;;-6.41;77.03
70971;BME280;58632;51.718;19.446;2022-11-20T06:22:15;99240.14;;;-6.44;77.18
70971;BME280;58632;51.718;19.446;2022-11-20T06:24:41;99239.10;;;-6.48;77.22
70971;BME280;58632;51.718;19.446;2022-11-20T06:27:06;99241.58;;;-6.49;77.21
70971;BME280;58632;51.718;19.446;2022-11-20T06:29:32;99243.13;;;-6.49;77.32
70971;BME280;58632;51.718;19.446;2022-11-20T06:31:57;99244.27;;;-6.45;77.28
70971;BME280;58632;51.718;19.446;2022-11-20T06:34:23;99252.37;;;-6.34;77.19
70971;BME280;58632;51.718;19.446;2022-11-20T06:36:48;99250.85;;;-6.28;76.98
70971;BME280;58632;51.718;19.446;2022-11-20T06:39:14;99253.12;;;-6.17;77.27
70971;BME280;58632;51.718;19.446;2022-11-20T06:41:40;99249.57;;;-6.06;77.29
70971;BME280;58632;51.718;19.446;2022-11-20T06:44:05;99247.39;;;-5.92;78.07
70971;BME280;58632;51.718;19.446;2022-11-20T06:46:31;99244.80;;;-5.76;77.63
70971;BME280;58632;51.718;19.446;2022-11-20T06:48:57;99241.73;;;-5.66;77.35
70971;BME280;58632;51.718;19.446;2022-11-20T06:51:23;99246.81;;;-5.53;77.97
70971;BME280;58632;51.718;19.446;2022-11-20T06:53:49;99241.70;;;-5.39;77.26
70971;BME280;58632;51.718;19.446;2022-11-20T06:56:14;99236.79;;;-5.25;77.61
70971;BME280;58632;51.718;19.446;2022-11-20T06:58:40;99238.92;;;-5.16;76.93
70971;BME280;58632;51.718;19.446;2022-11-20T07:01:06;99236.81;;;-5.10;76.97
70971;BME280;58632;51.718;19.446;2022-11-20T07:03:33;99236.90;;;-5.03;76.50
70971;BME280;58632;51.718;19.446;2022-11-20T07:05:58;99231.29;;;-5.04;76.25
70971;BME280;58632;51.718;19.446;2022-11-20T07:08:25;99231.17;;;-4.97;76.65
70971;BME280;58632;51.718;19.446;2022-11-20T07:10:50;99227.34;;;-4.86;76.40
70971;BME280;58632;51.718;19.446;2022-11-20T07:13:16;99228.02;;;-4.77;76.22
70971;BME280;58632;51.718;19.446;2022-11-20T07:15:41;99226.21;;;-4.69;76.01
70971;BME280;58632;51.718;19.446;2022-11-20T07:18:07;99226.67;;;-4.62;75.99
70971;BME280;58632;51.718;19.446;2022-11-20T07:20:32;99221.50;;;-4.54;76.14
70971;BME280;58632;51.718;19.446;2022-11-20T07:22:58;99216.84;;;-4.46;75.29
70971;BME280;58632;51.718;19.446;2022-11-20T07:25:24;99214.76;;;-4.32;75.49
70971;BME280;58632;51.718;19.446;2022-11-20T07:27:50;99212.12;;;-4.13;75.36
70971;BME280;58632;51.718;19.446;2022-11-20T07:30:16;99207.31;;;-3.94;75.45
70971;BME280;58632;51.718;19.446;2022-11-20T07:32:41;99208.42;;;-3.66;75.52
70971;BME280;58632;51.718;19.446;2022-11-20T07:35:07;99207.73;;;-3.35;75.57
70971;BME280;58632;51.718;19.446;2022-11-20T07:37:36;99208.42;;;-3.06;75.15
70971;BME280;58632;51.718;19.446;2022-11-20T07:40:02;99207.42;;;-2.84;74.50
70971;BME280;58632;51.718;19.446;2022-11-20T07:42:27;99207.45;;;-2.66;74.20
70971;BME280;58632;51.718;19.446;2022-11-20T07:44:53;99200.46;;;-2.52;73.55
70971;BME280;58632;51.718;19.446;2022-11-20T07:47:19;99203.25;;;-2.43;72.91
70971;BME280;58632;51.718;19.446;2022-11-20T07:49:44;99199.97;;;-2.30;72.89
70971;BME280;58632;51.718;19.446;2022-11-20T07:52:10;99200.42;;;-2.07;73.18
70971;BME280;58632;51.718;19.446;2022-11-20T07:54:36;99192.48;;;-1.85;72.61
70971;BME280;58632;51.718;19.446;2022-11-20T07:57:01;99195.59;;;-1.66;71.90
70971;BME280;58632;51.718;19.446;2022-11-20T07:59:27;99197.41;;;-1.60;71.70
70971;BME280;58632;51.718;19.446;2022-11-20T08:01:53;99197.23;;;-1.50;71.45
70971;BME280;58632;51.718;19.446;2022-11-20T08:04:18;99198.42;;;-1.48;70.90
70971;BME280;58632;51.718;19.446;2022-11-20T08:06:44;99194.13;;;-1.48;70.46
70971;BME280;58632;51.718;19.446;2022-11-20T08:09:09;99191.69;;;-1.52;70.20
70971;BME280;58632;51.718;19.446;2022-11-20T08:11:35;99186.11;;;-1.56;70.01
70971;BME280;58632;51.718;19.446;2022-11-20T08:14:19;99181.88;;;-1.62;69.92
70971;BME280;58632;51.718;19.446;2022-11-20T08:16:46;99178.52;;;-1.61;70.13
70971;BME280;58632;51.718;19.446;2022-11-20T08:19:15;99181.08;;;-1.47;70.13
70971;BME280;58632;51.718;19.446;2022-11-20T08:21:41;99179.34;;;-1.43;69.15
70971;BME280;58632;51.718;19.446;2022-11-20T08:24:07;99179.40;;;-1.41;69.13
70971;BME280;58632;51.718;19.446;2022-11-20T08:26:33;99176.39;;;-1.43;68.88
70971;BME280;58632;51.718;19.446;2022-11-20T08:28:58;99173.38;;;-1.44;69.01
70971;BME280;58632;51.718;19.446;2022-11-20T08:31:24;99167.31;;;-1.43;69.02
70971;BME280;58632;51.718;19.446;2022-11-20T08:33:50;99164.30;;;-1.35;69.21
70971;BME280;58632;51.718;19.446;2022-11-20T08:36:16;99163.98;;;-1.23;69.48
70971;BME280;58632;51.718;19.446;2022-11-20T08:38:46;99164.05;;;-1.14;68.88
70971;BME280;58632;51.718;19.446;2022-11-20T08:41:11;99161.89;;;-0.96;68.57
70971;BME280;58632;51.718;19.446;2022-11-20T08:43:54;99164.11;;;-0.81;68.05
70971;BME280;58632;51.718;19.446;2022-11-20T08:46:20;99161.67;;;-0.73;67.43
70971;BME280;58632;51.718;19.446;2022-11-20T08:48:46;99161.85;;;-0.67;67.42
70971;BME280;58632;51.718;19.446;2022-11-20T08:51:11;99162.13;;;-0.61;66.84
70971;BME280;58632;51.718;19.446;2022-11-20T08:53:37;99163.73;;;-0.65;66.14
70971;BME280;58632;51.718;19.446;2022-11-20T08:56:03;99159.86;;;-0.68;66.22
70971;BME280;58632;51.718;19.446;2022-11-20T08:58:29;99158.95;;;-0.64;66.40
70971;BME280;58632;51.718;19.446;2022-11-20T09:00:55;99155.32;;;-0.60;66.38
70971;BME280;58632;51.718;19.446;2022-11-20T09:03:20;99148.64;;;-0.57;65.68
70971;BME280;58632;51.718;19.446;2022-11-20T09:05:46;99146.77;;;-0.60;65.32
70971;BME280;58632;51.718;19.446;2022-11-20T09:08:12;99143.13;;;-0.55;65.86
70971;BME280;58632;51.718;19.446;2022-11-20T09:10:37;99140.67;;;-0.48;65.80
70971;BME280;58632;51.718;19.446;2022-11-20T09:13:06;99135.64;;;-0.40;65.71
70971;BME280;58632;51.718;19.446;2022-11-20T09:15:32;99140.28;;;-0.30;65.82
70971;BME280;58632;51.718;19.446;2022-11-20T09:17:59;99137.28;;;-0.22;65.47
70971;BME280;58632;51.718;19.446;2022-11-20T09:20:26;99135.40;;;-0.19;64.67
70971;BME280;58632;51.718;19.446;2022-11-20T09:22:52;99136.06;;;-0.11;64.75
70971;BME280;58632;51.718;19.446;2022-11-20T09:25:17;99133.28;;;0.03;64.94
70971;BME280;58632;51.718;19.446;2022-11-20T09:27:43;99129.73;;;0.13;64.88
70971;BME280;58632;51.718;19.446;2022-11-20T09:30:11;99129.25;;;0.23;64.45
70971;BME280;58632;51.718;19.446;2022-11-20T09:32:38;99124.55;;;0.22;63.16
70971;BME280;58632;51.718;19.446;2022-11-20T09:35:04;99122.83;;;0.17;62.89
70971;BME280;58632;51.718;19.446;2022-11-20T09:37:29;99122.46;;;0.15;62.46
70971;BME280;58632;51.718;19.446;2022-11-20T09:39:55;99125.75;;;0.17;62.98
70971;BME280;58632;51.718;19.446;2022-11-20T09:50:02;99127.41;;;0.32;61.92
70971;BME280;58632;51.718;19.446;2022-11-20T09:55:16;99121.42;;;0.42;60.49
70971;BME280;58632;51.718;19.446;2022-11-20T09:57:45;99116.30;;;0.35;59.10
70971;BME280;58632;51.718;19.446;2022-11-20T10:00:13;99108.13;;;0.29;58.86
70971;BME280;58632;51.718;19.446;2022-11-20T10:02:59;99103.66;;;0.27;58.76
70971;BME280;58632;51.718;19.446;2022-11-20T10:05:43;99097.73;;;0.26;59.15
70971;BME280;58632;51.718;19.446;2022-11-20T10:08:13;99093.31;;;0.30;59.69
70971;BME280;58632;51.718;19.446;2022-11-20T10:10:42;99094.66;;;0.34;59.94
70971;BME280;58632;51.718;19.446;2022-11-20T10:23:57;99102.38;;;0.57;58.62
70971;BME280;58632;51.718;19.446;2022-11-20T10:29:18;99099.35;;;0.60;57.50
70971;BME280;58632;51.718;19.446;2022-11-20T10:31:48;99089.64;;;0.65;57.65
70971;BME280;58632;51.718;19.446;2022-11-20T10:34:29;99089.73;;;0.68;57.64
70971;BME280;58632;51.718;19.446;2022-11-20T10:36:56;99083.59;;;0.72;57.71
70971;BME280;58632;51.718;19.446;2022-11-20T10:39:29;99082.02;;;0.76;57.47
70971;BME280;58632;51.718;19.446;2022-11-20T10:41:57;99081.96;;;0.76;56.67
70971;BME280;58632;51.718;19.446;2022-11-20T10:44:27;99087.23;;;0.77;56.95
70971;BME280;58632;51.718;19.446;2022-11-20T10:47:13;99085.85;;;0.76;56.73
70971;BME280;58632;51.718;19.446;2022-11-20T10:49:39;99083.80;;;0.73;56.62
70971;BME280;58632;51.718;19.446;2022-11-20T10:52:09;99075.18;;;0.72;56.79
70971;BME280;58632;51.718;19.446;2022-11-20T10:57:19;99076.53;;;0.73;56.71
70971;BME280;58632;51.718;19.446;2022-11-20T11:02:23;99069.39;;;0.79;56.96
70971;BME280;58632;51.718;19.446;2022-11-20T11:04:50;99077.10;;;0.79;55.80
70971;BME280;58632;51.718;19.446;2022-11-20T11:07:35;99074.95;;;0.76;56.05
70971;BME280;58632;51.718;19.446;2022-11-20T11:10:05;99071.40;;;0.73;55.81
70971;BME280;58632;51.718;19.446;2022-11-20T11:12:37;99068.62;;;0.70;55.69
70971;BME280;58632;51.718;19.446;2022-11-20T11:15:11;99065.16;;;0.68;55.63
70971;BME280;58632;51.718;19.446;2022-11-20T11:17:37;99065.87;;;0.67;55.22
70971;BME280;58632;51.718;19.446;2022-11-20T11:22:45;99060.58;;;0.69;55.48
70971;BME280;58632;51.718;19.446;2022-11-20T11:27:53;99052.92;;;0.72;55.91
70971;BME280;58632;51.718;19.446;2022-11-20T11:30:21;99049.42;;;0.74;56.10
70971;BME280;58632;51.718;19.446;2022-11-20T11:32:46;99045.95;;;0.79;56.58
70971;BME280;58632;51.718;19.446;2022-11-20T11:35:25;99044.45;;;0.85;56.70
70971;BME280;58632;51.718;19.446;2022-11-20T11:37:52;99043.09;;;0.91;56.21
70971;BME280;58632;51.718;19.446;2022-11-20T11:40:19;99040.44;;;0.95;56.06
70971;BME280;58632;51.718;19.446;2022-11-20T11:42:51;99036.10;;;0.98;56.14
70971;BME280;58632;51.718;19.446;2022-11-20T11:45:18;99033.29;;;1.01;56.52
70971;BME280;58632;51.718;19.446;2022-11-20T11:47:45;99032.11;;;0.99;56.00
70971;BME280;58632;51.718;19.446;2022-11-20T11:55:07;99034.21;;;0.96;56.65
70971;BME280;58632;51.718;19.446;2022-11-20T12:00:14;99036.34;;;1.06;56.22
70971;BME280;58632;51.718;19.446;2022-11-20T12:05:17;99027.92;;;1.06;55.57
70971;BME280;58632;51.718;19.446;2022-11-20T12:12:48;99015.39;;;0.99;55.25
70971;BME280;58632;51.718;19.446;2022-11-20T12:15:19;99016.77;;;0.93;54.85
70971;BME280;58632;51.718;19.446;2022-11-20T12:17:47;99015.98;;;0.90;55.00
70971;BME280;58632;51.718;19.446;2022-11-20T12:20:13;99016.01;;;0.83;54.89
70971;BME280;58632;51.718;19.446;2022-11-20T12:22:44;99014.17;;;0.82;55.52
70971;BME280;58632;51.718;19.446;2022-11-20T12:30:25;99008.98;;;0.84;55.57
70971;BME280;58632;51.718;19.446;2022-11-20T12:35:44;99003.69;;;0.89;56.04
70971;BME280;58632;51.718;19.446;2022-11-20T12:43:24;98991.15;;;0.92;56.64
70971;BME280;58632;51.718;19.446;2022-11-20T12:54:13;98975.16;;;0.91;57.09
70971;BME280;58632;51.718;19.446;2022-11-20T12:56:49;98970.63;;;0.90;57.13
70971;BME280;58632;51.718;19.446;2022-11-20T12:59:39;98966.64;;;0.89;56.43
70971;BME280;58632;51.718;19.446;2022-11-20T13:02:27;98967.00;;;0.84;55.84
70971;BME280;58632;51.718;19.446;2022-11-20T13:07:39;98958.89;;;0.77;55.16
70971;BME280;58632;51.718;19.446;2022-11-20T13:10:05;98955.45;;;0.75;55.30
70971;BME280;58632;51.718;19.446;2022-11-20T13:12:44;98954.17;;;0.74;55.54
70971;BME280;58632;51.718;19.446;2022-11-20T13:15:18;98954.87;;;0.74;56.11
70971;BME280;58632;51.718;19.446;2022-11-20T13:20:18;98949.69;;;0.76;56.25
70971;BME280;58632;51.718;19.446;2022-11-20T13:22:50;98945.13;;;0.73;55.95
70971;BME280;58632;51.718;19.446;2022-11-20T13:25:34;98942.40;;;0.67;56.15
70971;BME280;58632;51.718;19.446;2022-11-20T13:28:03;98941.59;;;0.59;56.00
70971;BME280;58632;51.718;19.446;2022-11-20T13:30:29;98935.80;;;0.52;56.37
70971;BME280;58632;51.718;19.446;2022-11-20T13:35:33;98932.83;;;0.37;56.52
70971;BME280;58632;51.718;19.446;2022-11-20T13:37:59;98930.01;;;0.31;56.75
70971;BME280;58632;51.718;19.446;2022-11-20T13:40:26;98929.11;;;0.25;56.79
70971;BME280;58632;51.718;19.446;2022-11-20T13:42:56;98928.92;;;0.18;56.75
70971;BME280;58632;51.718;19.446;2022-11-20T13:45:29;98925.11;;;0.12;57.28
70971;BME280;58632;51.718;19.446;2022-11-20T13:47:56;98921.95;;;0.06;57.70
70971;BME280;58632;51.718;19.446;2022-11-20T13:50:31;98923.16;;;-0.01;57.60
70971;BME280;58632;51.718;19.446;2022-11-20T14:00:48;98923.98;;;-0.30;58.55
70971;BME280;58632;51.718;19.446;2022-11-20T14:03:18;98923.70;;;-0.35;58.83
70971;BME280;58632;51.718;19.446;2022-11-20T14:05:59;98923.73;;;-0.41;59.06
70971;BME280;58632;51.718;19.446;2022-11-20T14:08:41;98924.90;;;-0.49;59.25
70971;BME280;58632;51.718;19.446;2022-11-20T14:11:18;98927.49;;;-0.57;59.54
70971;BME280;58632;51.718;19.446;2022-11-20T14:16:35;98920.93;;;-0.76;60.05
70971;BME280;58632;51.718;19.446;2022-11-20T14:21:55;98916.57;;;-0.92;60.35
70971;BME280;58632;51.718;19.446;2022-11-20T14:24:30;98910.20;;;-1.00;60.66
70971;BME280;58632;51.718;19.446;2022-11-20T14:26:55;98907.63;;;-1.13;60.92
70971;BME280;58632;51.718;19.446;2022-11-20T14:29:22;98906.84;;;-1.22;61.20
70971;BME280;58632;51.718;19.446;2022-11-20T14:31:51;98910.65;;;-1.31;61.56